Audubon, NY

8:24 PM EDT on September 16, 2014 (GMT -0400)
Bronx Community College | Change Station
CLOSE
Current Station
Personal Weather Station
Location: New York, NY
Elevation: 184 ft
Nearby Weather Stations

Elev 184 ft 40.86 °N, 73.91 °W | Updated 52 seconds ago

Partly Cloudy
Partly Cloudy
67.1 °F
Feels Like 67.1 °F
N
2.4
Wind Variable Wind from North
Gusts 0.0 mph

Today
High -- | Low -- °F
--% Chance of Precip.
Yesterday
High -- | Low -- °F
Precip. -- in
6:37 AM 7:03 PM
Last Quarter, 41% visible
Pressure 30.00 in
Visibility 10.0 miles
Clouds Mostly Cloudy 7000 ft
Dew Point 56 °F
Humidity 68%
Rainfall 0.42 in
Snow Depth Not available.
UV 0.0 out of 12
Pollen 3.80 out of 12
Ozone Good
PM2.5 Good
Flu Activity Not available.
METAR KNYC 162351Z AUTO VRB03KT 10SM BKN070 19/10 A3002 RMK AO2 SLP157 T01890100 10211 20183 53010

More Conditions Fewer Conditions

Pressure 30.00 in
Visibility 10.0 miles
Clouds Mostly Cloudy 7000 ft
Dew Point 56 °F
Humidity 68%
Rainfall 0.42 in
Snow Depth Not available.
UV 0.0 out of 12
Pollen 3.80 out of 12
Ozone Good
PM2.5 Good
Flu Activity Not available.
METAR KNYC 162351Z AUTO VRB03KT 10SM BKN070 19/10 A3002 RMK AO2 SLP157 T01890100 10211 20183 53010

More Conditions Fewer Conditions

10-Day Weather Forecast

Almanac

Astronomy

Sep. 16, 2014 Rise Set
Actual Time 6:37 AM EDT 7:03 PM EDT
Civil Twilight 6:09 AM EDT 7:30 PM EDT
Nautical Twilight 5:37 AM EDT 8:02 PM EDT
Astronomical Twilight 5:04 AM EDT 8:36 PM EDT
Moon No Moon Rise 2:26 PM EDT (9/16)
Length of Visible Light 13h 20m
Length of Day
12h 25m
Tomorrow will be 2m 40s shorter.
Last Quarter, 41% of the Moon is Illuminated
Today
Last Quarter
Sep 24
New
Oct 1
First Quarter
Oct 8
Full
Oct 15
Last Quarter

Today's Extremes

State Highs State Lows

Community

WunderPhotos

Upload Photos

1,753,931 photos uploaded!

Nearby

Air Quality

  Air Quality AQ Index Pollutant
Yesterday Good
OZONE
Yesterday Good
PM2.5
Current Good
PM2.5
Current Good
OZONE
Tuesday Good
PM2.5
Tuesday Good
OZONE
Wednesday Good
PM2.5
Wednesday Good
OZONE

Snow Depth

Station Depth Elevation
No new snow has been reported.

Earthquake Activity

City Distance Mag. Time & Date
No recent earthquake activity has been reported nearby.
Minimum magnitude displayed is 2.5.

Coastal Water Temperatures

Place Temperature
Bridgeport, CT 69.1 °F

Nearby Weather Stations